Amana, Iowa
Current Conditions -  °F | °C
As of 3:52 AM on Friday 28 Nov 2014 (Local Time) from KCID Reporting Station
Scattered Clouds Scattered Clouds  
Wind Chill:   Ceiling: Unl
Heat Index: 14°   Visibility: 10mi
Dew Point:   Wind: 10mph
Humidity: 71%   Direction: 120°ESE
Pressure: 30.2"   Gusts: NA
Location:  41.8°N, 91.87°W
Report Text: KCID 280952Z AUTO 12009KT 10SM SCT120 M10/M14 A3020 RMK AO2 SLP244 T11001144
Loading
Personal Weather Stations






























Interactive Weather Map New forecast layout! Learn more

10-Day Weather Forecast

Advertisements
Track Severe Weather on mobile